createdAt,value
2022-08-11T00:01:15.077Z,17.16
2022-08-11T00:03:49.742Z,17.11
2022-08-11T00:06:27.187Z,17.04
2022-08-11T00:08:56.353Z,17.12
2022-08-11T00:11:33.969Z,17.17
2022-08-11T00:14:04.248Z,17.22
2022-08-11T00:16:33.047Z,16.26
2022-08-11T00:19:02.458Z,16.57
2022-08-11T00:22:03.011Z,17.02
2022-08-11T00:24:23.241Z,16.09
2022-08-11T00:26:53.010Z,16.88
2022-08-11T00:29:22.246Z,16.74
2022-08-11T00:31:52.958Z,15.85
2022-08-11T00:34:24.922Z,16.78
2022-08-11T00:36:58.457Z,16.66
2022-08-11T00:39:29.328Z,16.43
2022-08-11T00:42:11.038Z,16.43
2022-08-11T00:44:54.374Z,16.01
2022-08-11T00:47:36.447Z,16.38
2022-08-11T00:50:18.292Z,16.30
2022-08-11T00:53:03.554Z,16.50
2022-08-11T00:55:58.789Z,16.72
2022-08-11T00:59:01.271Z,16.50
2022-08-11T01:01:48.390Z,16.44
2022-08-11T01:04:57.385Z,16.19
2022-08-11T01:08:01.609Z,16.30
2022-08-11T01:10:54.061Z,16.31
2022-08-11T01:13:48.287Z,16.15
2022-08-11T01:16:40.351Z,16.10
2022-08-11T01:20:45.452Z,15.21
2022-08-11T01:23:07.352Z,16.10
2022-08-11T01:26:02.624Z,16.08
2022-08-11T01:29:03.936Z,16.06
2022-08-11T01:32:01.925Z,16.01
2022-08-11T01:35:14.237Z,16.02
2022-08-11T01:38:15.893Z,15.97
2022-08-11T01:41:13.866Z,15.90
2022-08-11T01:44:31.778Z,15.81
2022-08-11T01:47:37.741Z,15.76
2022-08-11T01:50:36.741Z,15.65
2022-08-11T01:53:22.838Z,15.21
2022-08-11T01:56:02.213Z,15.63
2022-08-11T01:58:43.712Z,15.62
2022-08-11T02:01:29.761Z,15.55
2022-08-11T02:04:08.906Z,15.62
2022-08-11T02:06:58.414Z,15.68
2022-08-11T02:09:49.811Z,15.66
2022-08-11T02:12:35.810Z,15.50
2022-08-11T02:15:16.061Z,15.49
2022-08-11T02:18:01.472Z,15.44
2022-08-11T02:21:08.571Z,15.50
2022-08-11T02:24:03.793Z,15.57
2022-08-11T02:26:41.877Z,15.46
2022-08-11T02:29:19.796Z,15.29
2022-08-11T02:32:24.570Z,13.95
2022-08-11T02:35:05.372Z,15.37
2022-08-11T02:37:49.827Z,15.38
2022-08-11T02:40:28.499Z,15.39
2022-08-11T02:43:06.603Z,15.32
2022-08-11T02:45:46.292Z,15.23
2022-08-11T02:48:49.275Z,14.88
2022-08-11T02:51:26.707Z,14.97
2022-08-11T02:54:05.466Z,14.94
2022-08-11T02:56:52.403Z,15.10
2022-08-11T02:59:54.495Z,14.79
2022-08-11T03:02:34.668Z,15.00
2022-08-11T03:05:13.823Z,14.94
2022-08-11T03:07:53.019Z,14.80
2022-08-11T03:10:24.808Z,13.99
2022-08-11T03:13:19.926Z,14.94
2022-08-11T03:16:10.745Z,14.92
2022-08-11T03:18:44.047Z,14.86
2022-08-11T03:21:22.004Z,14.73
2022-08-11T03:24:01.553Z,14.74
2022-08-11T03:26:44.235Z,14.72
2022-08-11T03:29:25.084Z,14.76
2022-08-11T03:32:03.096Z,14.71
2022-08-11T03:34:32.831Z,14.55
2022-08-11T03:37:34.643Z,14.63
2022-08-11T03:40:12.672Z,14.63
2022-08-11T03:42:48.296Z,14.46
2022-08-11T03:45:26.989Z,14.49
2022-08-11T03:48:18.105Z,14.50
2022-08-11T03:50:59.160Z,14.25
2022-08-11T03:53:56.053Z,14.01
2022-08-11T03:57:03.375Z,14.59
2022-08-11T04:00:17.481Z,14.65
2022-08-11T04:03:31.175Z,14.64
2022-08-11T04:06:50.158Z,14.59
2022-08-11T04:10:08.545Z,14.60
2022-08-11T04:13:01.007Z,14.53
2022-08-11T04:16:12.120Z,14.50
2022-08-11T04:19:33.326Z,14.45
2022-08-11T04:22:40.540Z,14.43
2022-08-11T04:25:31.194Z,14.44
2022-08-11T04:28:34.796Z,14.53
2022-08-11T04:31:50.783Z,14.69
2022-08-11T04:34:43.807Z,15.14
2022-08-11T04:37:34.332Z,15.86
2022-08-11T04:40:40.525Z,16.23
2022-08-11T04:44:02.618Z,16.65
2022-08-11T04:47:03.716Z,17.14
2022-08-11T04:50:11.364Z,17.51
2022-08-11T04:53:21.874Z,17.78
2022-08-11T04:56:25.911Z,17.90
2022-08-11T04:59:30.491Z,17.57
2022-08-11T05:02:34.517Z,16.91
2022-08-11T05:05:32.689Z,16.10
2022-08-11T05:08:43.382Z,15.98
2022-08-11T05:11:36.691Z,16.23
2022-08-11T05:14:46.009Z,16.22
2022-08-11T05:17:40.404Z,15.94
2022-08-11T05:20:30.525Z,15.85
2022-08-11T05:23:22.661Z,15.88
2022-08-11T05:26:46.598Z,15.73
2022-08-11T05:29:21.454Z,15.71
2022-08-11T05:32:14.108Z,15.95
2022-08-11T05:34:52.889Z,16.14
2022-08-11T05:37:27.887Z,16.45
2022-08-11T05:40:18.620Z,16.22
2022-08-11T05:43:09.395Z,16.56
2022-08-11T05:46:02.487Z,16.59
2022-08-11T05:48:52.850Z,16.74
2022-08-11T05:51:39.551Z,16.90
2022-08-11T05:54:39.948Z,16.94
2022-08-11T05:57:09.056Z,16.83
2022-08-11T05:59:37.911Z,17.02
2022-08-11T06:02:08.655Z,17.06
2022-08-11T06:04:38.256Z,17.07
2022-08-11T06:07:09.473Z,17.45
2022-08-11T06:09:47.995Z,17.32
2022-08-11T06:12:21.237Z,17.26
2022-08-11T06:14:52.305Z,17.55
2022-08-11T06:17:25.395Z,17.95
2022-08-11T06:20:07.203Z,18.05
2022-08-11T06:22:36.554Z,18.20
2022-08-11T06:25:07.870Z,18.37
2022-08-11T06:27:38.341Z,18.36
2022-08-11T06:30:13.540Z,18.39
2022-08-11T06:32:44.713Z,18.75
2022-08-11T06:35:23.008Z,18.70
2022-08-11T06:38:16.152Z,18.81
2022-08-11T06:41:08.451Z,19.09
2022-08-11T06:43:56.052Z,19.12
2022-08-11T06:46:29.730Z,19.25
2022-08-11T06:48:58.118Z,18.98
2022-08-11T06:51:27.043Z,19.15
2022-08-11T06:54:04.938Z,19.60
2022-08-11T06:57:28.290Z,19.71
2022-08-11T07:00:01.998Z,19.93
2022-08-11T07:02:35.015Z,19.99
2022-08-11T07:05:08.440Z,20.20
2022-08-11T07:08:35.288Z,20.19
2022-08-11T07:11:42.603Z,20.55
2022-08-11T07:14:33.893Z,20.77
2022-08-11T07:17:09.111Z,21.05
2022-08-11T07:19:59.479Z,21.20
2022-08-11T07:22:50.143Z,21.44
2022-08-11T07:25:36.060Z,21.65
2022-08-11T07:28:23.028Z,21.93
2022-08-11T07:30:59.817Z,22.04
2022-08-11T07:34:07.070Z,21.28
2022-08-11T07:36:31.241Z,22.36
2022-08-11T07:38:59.907Z,22.56
2022-08-11T07:41:32.772Z,22.63
2022-08-11T07:44:09.195Z,22.56
2022-08-11T07:46:58.594Z,22.91
2022-08-11T07:49:45.380Z,23.13
2022-08-11T07:52:33.698Z,23.47
2022-08-11T07:55:06.229Z,23.75
2022-08-11T07:58:14.683Z,23.85
2022-08-11T08:01:03.867Z,24.15
2022-08-11T08:03:58.256Z,24.41
2022-08-11T08:06:45.803Z,24.60
2022-08-11T08:09:32.221Z,24.40
2022-08-11T08:12:20.558Z,24.54
2022-08-11T08:15:05.764Z,24.70
2022-08-11T08:18:09.696Z,24.62
2022-08-11T08:20:50.099Z,24.53
2022-08-11T08:23:33.040Z,24.55
2022-08-11T08:26:04.413Z,25.07
2022-08-11T08:28:34.691Z,25.32
2022-08-11T08:31:02.321Z,25.58
2022-08-11T08:33:33.195Z,25.68
2022-08-11T08:36:17.061Z,25.87
2022-08-11T08:38:49.759Z,25.80
2022-08-11T08:41:22.000Z,25.16
2022-08-11T08:43:55.817Z,26.23
2022-08-11T08:46:33.560Z,26.39
2022-08-11T08:49:03.741Z,26.29
2022-08-11T08:51:57.883Z,26.66
2022-08-11T08:54:30.503Z,26.73
2022-08-11T08:56:59.081Z,26.76
2022-08-11T08:59:49.248Z,26.69
2022-08-11T09:02:18.330Z,27.04
2022-08-11T09:04:48.115Z,27.04
2022-08-11T09:07:19.426Z,27.12
2022-08-11T09:09:49.952Z,27.27
2022-08-11T09:12:38.310Z,27.15
2022-08-11T09:15:10.605Z,26.92
2022-08-11T09:17:42.846Z,27.12
2022-08-11T09:20:14.538Z,27.06
2022-08-11T09:23:54.606Z,27.40
2022-08-11T09:26:11.104Z,27.39
2022-08-11T09:28:42.975Z,27.39
2022-08-11T09:31:13.507Z,27.40
2022-08-11T09:33:43.804Z,27.54
2022-08-11T09:36:31.787Z,27.39
2022-08-11T09:39:19.196Z,27.45
2022-08-11T09:42:01.845Z,27.40
2022-08-11T09:44:48.719Z,27.40
2022-08-11T09:47:25.539Z,27.49
2022-08-11T09:50:00.199Z,27.39
2022-08-11T09:52:31.924Z,27.40
2022-08-11T09:55:05.050Z,27.59
2022-08-11T09:57:50.980Z,27.36
2022-08-11T10:00:19.126Z,27.74
2022-08-11T10:02:50.039Z,27.41
2022-08-11T10:05:37.607Z,27.30
2022-08-11T10:08:08.475Z,27.35
2022-08-11T10:10:40.339Z,27.54
2022-08-11T10:14:03.785Z,27.71
2022-08-11T10:16:16.373Z,27.66
2022-08-11T10:18:53.400Z,27.67
2022-08-11T10:21:37.814Z,27.83
2022-08-11T10:24:26.195Z,27.71
2022-08-11T10:27:00.356Z,27.88
2022-08-11T10:29:50.253Z,27.61
2022-08-11T10:32:57.585Z,27.67
2022-08-11T10:35:30.624Z,27.83
2022-08-11T10:38:06.771Z,27.69
2022-08-11T10:40:40.099Z,27.72
2022-08-11T10:43:14.342Z,27.95
2022-08-11T10:46:05.416Z,27.86
2022-08-11T10:48:38.601Z,27.81
2022-08-11T10:51:14.746Z,27.96
2022-08-11T10:54:04.085Z,28.06
2022-08-11T10:56:53.793Z,28.04
2022-08-11T10:59:24.381Z,28.00
2022-08-11T11:01:54.873Z,28.02
2022-08-11T11:04:31.185Z,28.29
2022-08-11T11:07:06.905Z,27.91
2022-08-11T11:09:45.460Z,28.03
2022-08-11T11:12:36.221Z,28.30
2022-08-11T11:15:25.608Z,28.38
2022-08-11T11:18:01.440Z,28.01
2022-08-11T11:20:37.886Z,28.03
2022-08-11T11:23:11.303Z,28.04
2022-08-11T11:26:10.432Z,28.04
2022-08-11T11:29:07.976Z,28.04
2022-08-11T11:31:53.021Z,28.15
2022-08-11T11:34:53.049Z,28.31
2022-08-11T11:37:23.711Z,28.33
2022-08-11T11:39:51.770Z,28.35
2022-08-11T11:42:21.512Z,28.31
2022-08-11T11:44:54.153Z,28.28
2022-08-11T11:47:26.127Z,28.21
2022-08-11T11:49:54.484Z,28.40
2022-08-11T11:52:23.800Z,28.34
2022-08-11T11:54:56.500Z,28.31
2022-08-11T11:57:43.233Z,28.16
2022-08-11T12:00:44.491Z,28.21
2022-08-11T12:03:15.244Z,28.22
2022-08-11T12:05:44.925Z,27.71
2022-08-11T12:08:17.095Z,28.13
2022-08-11T12:10:48.254Z,28.23
2022-08-11T12:13:35.341Z,28.31
2022-08-11T12:16:33.612Z,28.26
2022-08-11T12:18:57.626Z,28.43
2022-08-11T12:21:26.386Z,28.47
2022-08-11T12:24:15.039Z,28.50
2022-08-11T12:27:15.985Z,28.49
2022-08-11T12:29:52.766Z,28.66
2022-08-11T12:32:24.374Z,28.52
2022-08-11T12:34:58.153Z,28.45
2022-08-11T12:37:31.380Z,28.52
2022-08-11T12:40:43.301Z,28.55
2022-08-11T12:43:38.325Z,28.22
2022-08-11T12:46:09.521Z,28.51
2022-08-11T12:49:02.163Z,27.87
2022-08-11T12:52:11.035Z,28.47
2022-08-11T12:54:51.546Z,28.64
2022-08-11T12:57:44.365Z,27.98
2022-08-11T13:00:31.734Z,28.32
2022-08-11T13:03:18.064Z,28.54
2022-08-11T13:05:49.786Z,28.49
2022-08-11T13:08:21.630Z,28.73
2022-08-11T13:11:09.945Z,28.78
2022-08-11T13:13:53.438Z,28.83
2022-08-11T13:16:25.232Z,28.65
2022-08-11T13:18:53.917Z,28.65
2022-08-11T13:21:23.376Z,28.68
2022-08-11T13:24:00.243Z,28.29
2022-08-11T13:26:46.818Z,28.64
2022-08-11T13:29:22.472Z,28.61
2022-08-11T13:31:52.538Z,28.60
2022-08-11T13:34:22.409Z,28.55
2022-08-11T13:36:53.142Z,28.35
2022-08-11T13:39:24.974Z,28.54
2022-08-11T13:41:56.974Z,28.49
2022-08-11T13:44:28.163Z,28.53
2022-08-11T13:46:59.183Z,28.65
2022-08-11T13:49:27.876Z,28.73
2022-08-11T13:51:57.340Z,28.75
2022-08-11T13:54:28.537Z,28.82
2022-08-11T13:57:01.542Z,28.53
2022-08-11T13:59:31.435Z,28.78
2022-08-11T14:02:21.631Z,28.87
2022-08-11T14:04:56.485Z,28.96
2022-08-11T14:07:27.017Z,28.69
2022-08-11T14:09:59.891Z,28.75
2022-08-11T14:12:48.657Z,28.68
2022-08-11T14:15:22.957Z,28.59
2022-08-11T14:17:56.075Z,28.52
2022-08-11T14:20:39.601Z,28.63
2022-08-11T14:23:12.684Z,28.75
2022-08-11T14:26:03.898Z,28.84
2022-08-11T14:28:41.493Z,28.92
2022-08-11T14:31:14.229Z,28.97
2022-08-11T14:33:59.613Z,29.01
2022-08-11T14:36:36.285Z,28.95
2022-08-11T14:39:08.185Z,28.92
2022-08-11T14:42:11.399Z,29.01
2022-08-11T14:45:01.390Z,28.95
2022-08-11T14:47:31.670Z,28.87
2022-08-11T14:50:09.931Z,28.77
2022-08-11T14:52:44.767Z,28.79
2022-08-11T14:55:32.507Z,28.98
2022-08-11T14:58:03.518Z,28.83
2022-08-11T15:00:34.253Z,28.41
2022-08-11T15:03:12.615Z,28.87
2022-08-11T15:05:56.177Z,28.86
2022-08-11T15:08:47.312Z,28.59
2022-08-11T15:11:34.570Z,29.02
2022-08-11T15:14:08.585Z,28.90
2022-08-11T15:17:10.493Z,28.69
2022-08-11T15:20:04.136Z,28.86
2022-08-11T15:22:49.658Z,29.00
2022-08-11T15:25:19.849Z,29.22
2022-08-11T15:28:09.151Z,29.19
2022-08-11T15:30:56.676Z,29.05
2022-08-11T15:33:45.454Z,29.13
2022-08-11T15:36:33.188Z,29.13
2022-08-11T15:39:05.208Z,28.98
2022-08-11T15:42:03.708Z,28.82
2022-08-11T15:45:03.239Z,29.01
2022-08-11T15:47:41.689Z,28.99
2022-08-11T15:50:15.533Z,28.85
2022-08-11T15:52:50.743Z,28.93
2022-08-11T15:55:20.549Z,28.66
2022-08-11T15:58:08.624Z,29.19
2022-08-11T16:01:03.719Z,29.02
2022-08-11T16:04:07.093Z,29.03
2022-08-11T16:06:46.351Z,29.05
2022-08-11T16:09:22.185Z,29.12
2022-08-11T16:11:52.307Z,29.13
2022-08-11T16:14:39.260Z,29.01
2022-08-11T16:17:11.183Z,28.92
2022-08-11T16:19:42.162Z,28.85
2022-08-11T16:22:13.144Z,28.59
2022-08-11T16:27:01.428Z,28.94
2022-08-11T16:27:36.915Z,28.83
2022-08-11T16:30:06.950Z,29.11
2022-08-11T16:32:36.793Z,29.00
2022-08-11T16:35:24.844Z,28.94
2022-08-11T16:38:12.735Z,28.86
2022-08-11T16:40:42.803Z,28.86
2022-08-11T16:43:33.756Z,28.88
2022-08-11T16:46:33.576Z,28.92
2022-08-11T16:49:04.003Z,28.99
2022-08-11T16:51:34.253Z,28.81
2022-08-11T16:54:05.116Z,29.01
2022-08-11T16:56:37.449Z,28.90
2022-08-11T16:59:15.620Z,28.86
2022-08-11T17:01:48.301Z,28.80
2022-08-11T17:04:47.587Z,28.57
2022-08-11T17:07:42.386Z,28.83
2022-08-11T17:10:51.959Z,28.87
2022-08-11T17:13:29.125Z,28.77
2022-08-11T17:16:11.798Z,28.87
2022-08-11T17:18:46.720Z,28.78
2022-08-11T17:21:21.009Z,28.59
2022-08-11T17:23:54.928Z,28.63
2022-08-11T17:26:27.949Z,28.62
2022-08-11T17:29:00.363Z,28.52
2022-08-11T17:31:56.136Z,28.79
2022-08-11T17:34:41.958Z,28.68
2022-08-11T17:37:09.989Z,28.60
2022-08-11T17:39:41.022Z,28.79
2022-08-11T17:42:28.107Z,28.53
2022-08-11T17:45:14.318Z,28.31
2022-08-11T17:48:00.703Z,28.50
2022-08-11T17:50:29.612Z,28.32
2022-08-11T17:53:16.731Z,28.30
2022-08-11T17:56:05.054Z,28.22
2022-08-11T17:58:51.283Z,28.07
2022-08-11T18:01:21.015Z,28.08
2022-08-11T18:03:53.094Z,27.79
2022-08-11T18:06:34.155Z,28.17
2022-08-11T18:09:22.985Z,27.48
2022-08-11T18:12:12.921Z,27.79
2022-08-11T18:15:02.838Z,27.87
2022-08-11T18:17:48.549Z,27.71
2022-08-11T18:20:34.160Z,27.72
2022-08-11T18:23:46.143Z,27.54
2022-08-11T18:26:30.872Z,27.57
2022-08-11T18:29:18.630Z,27.52
2022-08-11T18:32:08.435Z,27.53
2022-08-11T18:34:59.112Z,27.32
2022-08-11T18:37:46.951Z,27.22
2022-08-11T18:40:36.264Z,27.16
2022-08-11T18:43:27.374Z,27.02
2022-08-11T18:46:19.620Z,26.86
2022-08-11T18:49:13.124Z,26.68
2022-08-11T18:52:05.599Z,26.67
2022-08-11T18:54:55.415Z,26.50
2022-08-11T18:57:49.765Z,26.44
2022-08-11T19:00:40.454Z,26.23
2022-08-11T19:03:29.827Z,25.55
2022-08-11T19:06:38.901Z,25.80
2022-08-11T19:09:26.332Z,25.39
2022-08-11T19:12:13.561Z,25.14
2022-08-11T19:15:00.881Z,25.11
2022-08-11T19:17:49.018Z,24.98
2022-08-11T19:20:39.065Z,24.83
2022-08-11T19:23:27.231Z,24.47
2022-08-11T19:26:13.314Z,24.36
2022-08-11T19:29:02.663Z,24.31
2022-08-11T19:31:49.220Z,24.24
2022-08-11T19:34:37.106Z,24.20
2022-08-11T19:37:25.861Z,24.12
2022-08-11T19:40:13.361Z,24.05
2022-08-11T19:43:01.470Z,23.85
2022-08-11T19:45:52.279Z,23.69
2022-08-11T19:48:40.718Z,23.53
2022-08-11T19:51:29.130Z,23.41
2022-08-11T19:54:17.177Z,23.28
2022-08-11T19:57:04.222Z,23.26
2022-08-11T19:59:50.525Z,23.10
2022-08-11T20:02:36.408Z,23.01
2022-08-11T20:05:23.099Z,22.84
2022-08-11T20:08:09.344Z,22.78
2022-08-11T20:10:57.006Z,22.69
2022-08-11T20:13:45.373Z,22.67
2022-08-11T20:16:34.308Z,22.39
2022-08-11T20:19:25.921Z,22.41
2022-08-11T20:22:26.241Z,22.42
2022-08-11T20:25:13.286Z,22.34
2022-08-11T20:28:02.547Z,22.14
2022-08-11T20:30:48.901Z,22.19
2022-08-11T20:33:39.280Z,21.83
2022-08-11T20:36:26.317Z,22.04
2022-08-11T20:39:12.695Z,21.84
2022-08-11T20:41:59.654Z,21.78
2022-08-11T20:44:48.734Z,21.59
2022-08-11T20:47:56.155Z,21.51
2022-08-11T20:50:42.470Z,21.40
2022-08-11T20:53:35.877Z,21.35
2022-08-11T20:56:28.598Z,21.28
2022-08-11T20:59:19.010Z,21.27
2022-08-11T21:02:10.681Z,21.11
2022-08-11T21:04:57.446Z,21.16
2022-08-11T21:07:55.225Z,21.10
2022-08-11T21:10:44.566Z,21.02
2022-08-11T21:13:34.399Z,21.03
2022-08-11T21:16:26.312Z,21.00
2022-08-11T21:20:00.764Z,20.84
2022-08-11T21:22:31.914Z,20.70
2022-08-11T21:25:19.841Z,20.70
2022-08-11T21:28:09.033Z,20.60
2022-08-11T21:30:57.770Z,20.58
2022-08-11T21:33:46.252Z,20.59
2022-08-11T21:36:33.376Z,19.93
2022-08-11T21:39:20.633Z,20.47
2022-08-11T21:42:12.207Z,20.50
2022-08-11T21:44:59.798Z,20.40
2022-08-11T21:47:47.054Z,20.36
2022-08-11T21:50:32.502Z,20.24
2022-08-11T21:53:19.728Z,20.05
2022-08-11T21:56:06.466Z,20.23
2022-08-11T21:58:53.082Z,20.13
2022-08-11T22:01:40.391Z,19.93
2022-08-11T22:04:26.261Z,19.92
2022-08-11T22:07:12.831Z,19.83
2022-08-11T22:10:00.230Z,19.73
2022-08-11T22:12:45.661Z,19.54
2022-08-11T22:15:32.336Z,19.75
2022-08-11T22:18:20.239Z,19.67
2022-08-11T22:21:07.128Z,19.71
2022-08-11T22:23:59.418Z,19.61
2022-08-11T22:26:47.784Z,19.53
2022-08-11T22:29:50.123Z,19.54
2022-08-11T22:32:37.893Z,19.53
2022-08-11T22:35:28.412Z,19.36
2022-08-11T22:38:15.799Z,19.36
2022-08-11T22:41:01.594Z,19.30
2022-08-11T22:43:48.739Z,19.11
2022-08-11T22:46:37.329Z,18.74
2022-08-11T22:49:23.071Z,19.19
2022-08-11T22:52:09.182Z,19.11
2022-08-11T22:54:56.587Z,19.05
2022-08-11T22:57:46.582Z,19.08
2022-08-11T23:00:48.993Z,19.22
2022-08-11T23:03:38.264Z,19.12
2022-08-11T23:06:25.477Z,19.01
2022-08-11T23:09:12.247Z,18.88
2022-08-11T23:12:07.348Z,18.77
2022-08-11T23:14:58.476Z,18.62
2022-08-11T23:17:46.565Z,18.74
2022-08-11T23:20:39.437Z,18.30
2022-08-11T23:23:32.761Z,18.70
2022-08-11T23:26:19.023Z,18.57
2022-08-11T23:29:05.977Z,18.53
2022-08-11T23:31:53.945Z,18.52
2022-08-11T23:35:03.333Z,18.57
2022-08-11T23:37:51.284Z,18.37
2022-08-11T23:40:36.688Z,18.42
2022-08-11T23:43:23.033Z,18.50
2022-08-11T23:46:08.570Z,18.36
2022-08-11T23:48:55.914Z,18.38
2022-08-11T23:51:44.300Z,18.22
2022-08-11T23:54:35.120Z,18.17
2022-08-11T23:57:23.268Z,18.15
